sensor_id;sensor_type;location;lat;lon;timestamp;pressure;altitude;pressure_sealevel;temperature;humidity
52839;BME280;39219;53.678;9.856;2023-05-02T00:00:15;76783.75;;;-147.77;78.91
52839;BME280;39219;53.678;9.856;2023-05-02T00:02:43;76777.69;;;-147.77;79.87
52839;BME280;39219;53.678;9.856;2023-05-02T00:05:10;76769.59;;;-147.77;80.06
52839;BME280;39219;53.678;9.856;2023-05-02T00:07:36;76765.56;;;-147.77;80.69
52839;BME280;39219;53.678;9.856;2023-05-02T00:10:03;76755.44;;;-147.77;81.33
52839;BME280;39219;53.678;9.856;2023-05-02T00:12:30;76757.47;;;-147.77;81.38
52839;BME280;39219;53.678;9.856;2023-05-02T00:14:56;76769.59;;;-147.77;81.15
52839;BME280;39219;53.678;9.856;2023-05-02T00:17:23;76763.53;;;-147.77;81.92
52839;BME280;39219;53.678;9.856;2023-05-02T00:19:51;76771.63;;;-147.77;82.03
52839;BME280;39219;53.678;9.856;2023-05-02T00:22:17;76773.66;;;-147.77;83.65
52839;BME280;39219;53.678;9.856;2023-05-02T00:24:44;76771.63;;;-147.77;84.26
52839;BME280;39219;53.678;9.856;2023-05-02T00:27:10;76775.66;;;-147.77;84.35
52839;BME280;39219;53.678;9.856;2023-05-02T00:29:37;76787.81;;;-147.77;84.80
52839;BME280;39219;53.678;9.856;2023-05-02T00:32:04;76808.03;;;-147.77;84.69
52839;BME280;39219;53.678;9.856;2023-05-02T00:34:31;76799.94;;;-147.77;85.80
52839;BME280;39219;53.678;9.856;2023-05-02T00:36:59;76814.09;;;-147.77;85.69
52839;BME280;39219;53.678;9.856;2023-05-02T00:39:25;76820.19;;;-147.77;85.75
52839;BME280;39219;53.678;9.856;2023-05-02T00:41:55;76814.09;;;-147.77;86.64
52839;BME280;39219;53.678;9.856;2023-05-02T00:44:22;76812.09;;;-147.77;86.72
52839;BME280;39219;53.678;9.856;2023-05-02T00:46:49;76812.09;;;-147.77;86.34
52839;BME280;39219;53.678;9.856;2023-05-02T00:49:15;76810.06;;;-147.77;86.55
52839;BME280;39219;53.678;9.856;2023-05-02T00:51:42;76826.25;;;-147.77;86.31
52839;BME280;39219;53.678;9.856;2023-05-02T00:54:10;76822.19;;;-147.77;87.04
52839;BME280;39219;53.678;9.856;2023-05-02T00:56:37;76824.22;;;-147.77;87.23
52839;BME280;39219;53.678;9.856;2023-05-02T00:59:05;76828.28;;;-147.77;87.84
52839;BME280;39219;53.678;9.856;2023-05-02T01:01:39;76830.28;;;-147.77;88.76
52839;BME280;39219;53.678;9.856;2023-05-02T01:04:17;76820.19;;;-147.77;89.02
52839;BME280;39219;53.678;9.856;2023-05-02T01:06:55;76824.22;;;-147.77;89.55
52839;BME280;39219;53.678;9.856;2023-05-02T01:09:35;76818.16;;;-147.77;90.03
52839;BME280;39219;53.678;9.856;2023-05-02T01:12:10;76816.13;;;-147.77;90.08
52839;BME280;39219;53.678;9.856;2023-05-02T01:14:41;76824.22;;;-147.77;89.50
52839;BME280;39219;53.678;9.856;2023-05-02T01:17:11;76826.25;;;-147.77;90.39
52839;BME280;39219;53.678;9.856;2023-05-02T01:19:40;76830.28;;;-147.77;90.39
52839;BME280;39219;53.678;9.856;2023-05-02T01:22:10;76828.28;;;-147.77;90.88
52839;BME280;39219;53.678;9.856;2023-05-02T01:24:51;76822.19;;;-147.77;91.56
52839;BME280;39219;53.678;9.856;2023-05-02T01:27:26;76816.13;;;-147.77;91.60
52839;BME280;39219;53.678;9.856;2023-05-02T01:29:56;76822.19;;;-147.77;91.50
52839;BME280;39219;53.678;9.856;2023-05-02T01:32:25;76828.28;;;-147.77;91.74
52839;BME280;39219;53.678;9.856;2023-05-02T01:34:53;76828.28;;;-147.77;92.32
52839;BME280;39219;53.678;9.856;2023-05-02T01:37:23;76830.28;;;-147.77;91.90
52839;BME280;39219;53.678;9.856;2023-05-02T01:39:52;76832.31;;;-147.77;92.43
52839;BME280;39219;53.678;9.856;2023-05-02T01:42:21;76834.34;;;-147.77;92.30
52839;BME280;39219;53.678;9.856;2023-05-02T01:44:49;76840.41;;;-147.77;92.79
52839;BME280;39219;53.678;9.856;2023-05-02T01:47:18;76838.38;;;-147.77;92.77
52839;BME280;39219;53.678;9.856;2023-05-02T01:49:47;76842.44;;;-147.77;92.37
52839;BME280;39219;53.678;9.856;2023-05-02T01:52:14;76842.44;;;-147.77;92.73
52839;BME280;39219;53.678;9.856;2023-05-02T01:54:42;76844.44;;;-147.77;92.29
52839;BME280;39219;53.678;9.856;2023-05-02T01:57:10;76870.75;;;-147.77;92.52
52839;BME280;39219;53.678;9.856;2023-05-02T01:59:39;76862.66;;;-147.77;92.11
52839;BME280;39219;53.678;9.856;2023-05-02T02:02:07;76878.84;;;-147.77;91.53
52839;BME280;39219;53.678;9.856;2023-05-02T02:04:36;76888.97;;;-147.77;90.94
52839;BME280;39219;53.678;9.856;2023-05-02T02:07:06;76905.16;;;-147.77;90.89
52839;BME280;39219;53.678;9.856;2023-05-02T02:09:33;76901.09;;;-147.77;90.71
52839;BME280;39219;53.678;9.856;2023-05-02T02:12:03;76905.16;;;-147.77;90.79
52839;BME280;39219;53.678;9.856;2023-05-02T02:14:33;76911.22;;;-147.77;90.17
52839;BME280;39219;53.678;9.856;2023-05-02T02:17:01;76925.38;;;-147.77;90.97
52839;BME280;39219;53.678;9.856;2023-05-02T02:19:30;76935.50;;;-147.77;91.32
52839;BME280;39219;53.678;9.856;2023-05-02T02:22:01;76980.00;;;-147.77;91.74
52839;BME280;39219;53.678;9.856;2023-05-02T02:24:29;76996.19;;;-147.77;92.67
52839;BME280;39219;53.678;9.856;2023-05-02T02:26:57;77010.34;;;-147.77;92.18
52839;BME280;39219;53.678;9.856;2023-05-02T02:29:23;77038.69;;;-147.77;91.97
52839;BME280;39219;53.678;9.856;2023-05-02T02:31:50;77042.72;;;-147.77;91.73
52839;BME280;39219;53.678;9.856;2023-05-02T02:34:16;77044.75;;;-147.77;90.88
52839;BME280;39219;53.678;9.856;2023-05-02T02:36:45;77050.81;;;-147.77;90.20
52839;BME280;39219;53.678;9.856;2023-05-02T02:39:23;77077.13;;;-147.77;89.80
52839;BME280;39219;53.678;9.856;2023-05-02T02:42:01;77131.75;;;-147.77;89.07
52839;BME280;39219;53.678;9.856;2023-05-02T02:44:36;77127.69;;;-147.77;88.97
52839;BME280;39219;53.678;9.856;2023-05-02T02:47:09;77158.03;;;-147.77;87.52
52839;BME280;39219;53.678;9.856;2023-05-02T02:49:46;77168.16;;;-147.77;86.20
52839;BME280;39219;53.678;9.856;2023-05-02T02:52:19;77168.16;;;-147.77;85.75
52839;BME280;39219;53.678;9.856;2023-05-02T02:54:52;77176.25;;;-147.77;84.26
52839;BME280;39219;53.678;9.856;2023-05-02T02:57:25;77198.50;;;-147.77;84.18
52839;BME280;39219;53.678;9.856;2023-05-02T02:59:57;77200.53;;;-147.77;82.76
52839;BME280;39219;53.678;9.856;2023-05-02T03:02:27;77218.75;;;-147.77;82.79
52839;BME280;39219;53.678;9.856;2023-05-02T03:04:56;77220.75;;;-147.77;82.35
52839;BME280;39219;53.678;9.856;2023-05-02T03:07:23;77238.97;;;-147.77;82.20
52839;BME280;39219;53.678;9.856;2023-05-02T03:09:53;77232.91;;;-147.77;82.48
52839;BME280;39219;53.678;9.856;2023-05-02T03:12:20;77247.06;;;-147.77;82.67
52839;BME280;39219;53.678;9.856;2023-05-02T03:14:47;77285.50;;;-147.77;82.36
52839;BME280;39219;53.678;9.856;2023-05-02T03:17:13;77301.69;;;-147.77;82.29
52839;BME280;39219;53.678;9.856;2023-05-02T03:19:40;77291.56;;;-147.77;82.00
52839;BME280;39219;53.678;9.856;2023-05-02T03:22:06;77297.66;;;-147.77;80.52
52839;BME280;39219;53.678;9.856;2023-05-02T03:24:32;77311.81;;;-147.77;81.40
52839;BME280;39219;53.678;9.856;2023-05-02T03:27:00;77323.94;;;-147.77;81.39
52839;BME280;39219;53.678;9.856;2023-05-02T03:29:27;77332.03;;;-147.77;80.65
52839;BME280;39219;53.678;9.856;2023-05-02T03:31:53;77346.19;;;-147.77;80.44
52839;BME280;39219;53.678;9.856;2023-05-02T03:34:20;77354.28;;;-147.77;80.01
52839;BME280;39219;53.678;9.856;2023-05-02T03:36:47;77368.47;;;-147.77;79.23
52839;BME280;39219;53.678;9.856;2023-05-02T03:39:13;77374.53;;;-147.77;78.63
52839;BME280;39219;53.678;9.856;2023-05-02T03:41:40;77382.63;;;-147.77;78.61
52839;BME280;39219;53.678;9.856;2023-05-02T03:44:09;77402.84;;;-147.77;76.75
52839;BME280;39219;53.678;9.856;2023-05-02T03:46:35;77412.97;;;-147.77;75.19
52839;BME280;39219;53.678;9.856;2023-05-02T03:49:02;77419.03;;;-147.77;73.99
52839;BME280;39219;53.678;9.856;2023-05-02T03:51:28;77415.00;;;-147.77;73.79
52839;BME280;39219;53.678;9.856;2023-05-02T03:53:55;77421.06;;;-147.77;73.01
52839;BME280;39219;53.678;9.856;2023-05-02T03:56:22;77417.03;;;-147.77;72.55
52839;BME280;39219;53.678;9.856;2023-05-02T03:58:48;77423.09;;;-147.77;71.83
52839;BME280;39219;53.678;9.856;2023-05-02T04:01:16;77425.13;;;-147.77;71.97
52839;BME280;39219;53.678;9.856;2023-05-02T04:03:43;77443.31;;;-147.77;72.26
52839;BME280;39219;53.678;9.856;2023-05-02T04:06:09;77453.44;;;-147.77;71.61
52839;BME280;39219;53.678;9.856;2023-05-02T04:08:37;77455.47;;;-147.77;71.21
52839;BME280;39219;53.678;9.856;2023-05-02T04:11:03;77449.41;;;-147.77;71.21
52839;BME280;39219;53.678;9.856;2023-05-02T04:13:30;77465.59;;;-147.77;70.08
52839;BME280;39219;53.678;9.856;2023-05-02T04:15:56;77477.72;;;-147.77;70.29
52839;BME280;39219;53.678;9.856;2023-05-02T04:18:24;77479.75;;;-147.77;71.07
52839;BME280;39219;53.678;9.856;2023-05-02T04:20:51;77471.66;;;-147.77;71.05
52839;BME280;39219;53.678;9.856;2023-05-02T04:23:17;77463.56;;;-147.77;70.94
52839;BME280;39219;53.678;9.856;2023-05-02T04:25:50;77475.69;;;-147.77;70.50
52839;BME280;39219;53.678;9.856;2023-05-02T04:28:17;77489.84;;;-147.77;69.97
52839;BME280;39219;53.678;9.856;2023-05-02T04:30:43;77499.97;;;-147.77;70.03
52839;BME280;39219;53.678;9.856;2023-05-02T04:33:10;77508.06;;;-147.77;70.14
52839;BME280;39219;53.678;9.856;2023-05-02T04:35:39;77506.03;;;-147.77;70.67
52839;BME280;39219;53.678;9.856;2023-05-02T04:38:06;77506.03;;;-147.77;69.66
52839;BME280;39219;53.678;9.856;2023-05-02T04:40:33;77502.00;;;-147.77;70.31
52839;BME280;39219;53.678;9.856;2023-05-02T04:42:59;77512.13;;;-147.77;69.83
52839;BME280;39219;53.678;9.856;2023-05-02T04:45:26;77512.13;;;-147.77;69.46
52839;BME280;39219;53.678;9.856;2023-05-02T04:47:52;77512.13;;;-147.77;68.71
52839;BME280;39219;53.678;9.856;2023-05-02T04:50:18;77512.13;;;-147.77;69.20
52839;BME280;39219;53.678;9.856;2023-05-02T04:52:46;77526.28;;;-147.77;68.37
52839;BME280;39219;53.678;9.856;2023-05-02T04:55:13;77530.31;;;-147.77;68.30
52839;BME280;39219;53.678;9.856;2023-05-02T04:57:39;77520.22;;;-147.77;68.29
52839;BME280;39219;53.678;9.856;2023-05-02T05:00:07;77524.25;;;-147.77;67.13
52839;BME280;39219;53.678;9.856;2023-05-02T05:02:33;77518.19;;;-147.77;67.82
52839;BME280;39219;53.678;9.856;2023-05-02T05:05:00;77530.31;;;-147.77;66.77
52839;BME280;39219;53.678;9.856;2023-05-02T05:07:26;77520.22;;;-147.77;67.74
52839;BME280;39219;53.678;9.856;2023-05-02T05:09:54;77534.38;;;-147.77;67.59
52839;BME280;39219;53.678;9.856;2023-05-02T05:12:21;77522.22;;;-147.77;68.32
52839;BME280;39219;53.678;9.856;2023-05-02T05:14:47;77552.59;;;-147.77;67.76
52839;BME280;39219;53.678;9.856;2023-05-02T05:17:14;77544.50;;;-147.77;67.87
52839;BME280;39219;53.678;9.856;2023-05-02T05:19:41;77544.50;;;-147.77;67.90
52839;BME280;39219;53.678;9.856;2023-05-02T05:22:08;77550.56;;;-147.77;67.01
52839;BME280;39219;53.678;9.856;2023-05-02T05:24:34;77552.59;;;-147.77;67.20
52839;BME280;39219;53.678;9.856;2023-05-02T05:27:03;77556.63;;;-147.77;66.41
52839;BME280;39219;53.678;9.856;2023-05-02T05:29:30;77570.78;;;-147.77;66.58
52839;BME280;39219;53.678;9.856;2023-05-02T05:31:57;77560.69;;;-147.77;66.68
52839;BME280;39219;53.678;9.856;2023-05-02T05:34:23;77562.69;;;-147.77;65.68
52839;BME280;39219;53.678;9.856;2023-05-02T05:36:49;77566.75;;;-147.77;65.46
52839;BME280;39219;53.678;9.856;2023-05-02T05:39:16;77576.88;;;-147.77;65.44
52839;BME280;39219;53.678;9.856;2023-05-02T05:41:42;77572.81;;;-147.77;65.65
52839;BME280;39219;53.678;9.856;2023-05-02T05:44:10;77566.75;;;-147.77;65.14
52839;BME280;39219;53.678;9.856;2023-05-02T05:46:37;77601.16;;;-147.77;63.66
52839;BME280;39219;53.678;9.856;2023-05-02T05:49:03;77601.16;;;-147.77;62.68
52839;BME280;39219;53.678;9.856;2023-05-02T05:51:30;77611.25;;;-147.77;62.70
52839;BME280;39219;53.678;9.856;2023-05-02T05:53:57;77601.16;;;-147.77;62.07
52839;BME280;39219;53.678;9.856;2023-05-02T05:56:23;77591.03;;;-147.77;61.80
52839;BME280;39219;53.678;9.856;2023-05-02T05:58:49;77580.91;;;-147.77;60.86
52839;BME280;39219;53.678;9.856;2023-05-02T06:01:17;77558.66;;;-147.77;60.75
52839;BME280;39219;53.678;9.856;2023-05-02T06:03:44;77552.59;;;-147.77;59.90
52839;BME280;39219;53.678;9.856;2023-05-02T06:06:10;77556.63;;;-147.77;59.82
52839;BME280;39219;53.678;9.856;2023-05-02T06:08:37;77550.56;;;-147.77;59.99
52839;BME280;39219;53.678;9.856;2023-05-02T06:11:09;77544.50;;;-147.77;59.70
52839;BME280;39219;53.678;9.856;2023-05-02T06:13:36;77572.81;;;-147.77;58.38
52839;BME280;39219;53.678;9.856;2023-05-02T06:16:03;77558.66;;;-147.77;58.86
52839;BME280;39219;53.678;9.856;2023-05-02T06:18:31;77576.88;;;-147.77;58.82
52839;BME280;39219;53.678;9.856;2023-05-02T06:21:03;77568.78;;;-147.77;58.84
52839;BME280;39219;53.678;9.856;2023-05-02T06:23:30;77554.59;;;-147.77;59.21
52839;BME280;39219;53.678;9.856;2023-05-02T06:25:58;77574.84;;;-147.77;56.59
52839;BME280;39219;53.678;9.856;2023-05-02T06:28:24;77593.06;;;-147.77;55.67
52839;BME280;39219;53.678;9.856;2023-05-02T06:30:56;77611.25;;;-147.77;55.64
52839;BME280;39219;53.678;9.856;2023-05-02T06:33:22;77609.25;;;-147.77;54.89
52839;BME280;39219;53.678;9.856;2023-05-02T06:35:51;77607.22;;;-147.77;55.64
52839;BME280;39219;53.678;9.856;2023-05-02T06:38:18;77611.25;;;-147.77;55.33
52839;BME280;39219;53.678;9.856;2023-05-02T06:40:44;77603.16;;;-147.77;55.44
52839;BME280;39219;53.678;9.856;2023-05-02T06:43:11;77613.28;;;-147.77;54.95
52839;BME280;39219;53.678;9.856;2023-05-02T06:45:38;77605.19;;;-147.77;55.04
52839;BME280;39219;53.678;9.856;2023-05-02T06:48:05;77605.19;;;-147.77;53.85
52839;BME280;39219;53.678;9.856;2023-05-02T06:50:32;77621.38;;;-147.77;52.60
52839;BME280;39219;53.678;9.856;2023-05-02T06:53:00;77609.25;;;-147.77;52.56
52839;BME280;39219;53.678;9.856;2023-05-02T06:55:27;77607.22;;;-147.77;51.24
52839;BME280;39219;53.678;9.856;2023-05-02T06:57:54;77615.31;;;-147.77;51.57
52839;BME280;39219;53.678;9.856;2023-05-02T07:00:20;77617.34;;;-147.77;50.63
52839;BME280;39219;53.678;9.856;2023-05-02T07:02:48;77625.44;;;-147.77;50.63
52839;BME280;39219;53.678;9.856;2023-05-02T07:05:15;77601.16;;;-147.77;50.68
52839;BME280;39219;53.678;9.856;2023-05-02T07:07:42;77584.97;;;-147.77;49.38
52839;BME280;39219;53.678;9.856;2023-05-02T07:10:10;77593.06;;;-147.77;49.30
52839;BME280;39219;53.678;9.856;2023-05-02T07:12:37;77568.78;;;-147.77;49.87
52839;BME280;39219;53.678;9.856;2023-05-02T07:15:05;77556.63;;;-147.77;49.59
52839;BME280;39219;53.678;9.856;2023-05-02T07:17:32;77536.41;;;-147.77;49.62
52839;BME280;39219;53.678;9.856;2023-05-02T07:19:59;77528.31;;;-147.77;49.78
52839;BME280;39219;53.678;9.856;2023-05-02T07:22:25;77536.41;;;-147.77;49.76
52839;BME280;39219;53.678;9.856;2023-05-02T07:24:56;77526.28;;;-147.77;48.46
52839;BME280;39219;53.678;9.856;2023-05-02T07:27:24;77546.50;;;-147.77;48.71
52839;BME280;39219;53.678;9.856;2023-05-02T07:29:51;77556.63;;;-147.77;48.83
52839;BME280;39219;53.678;9.856;2023-05-02T07:32:18;77544.50;;;-147.77;48.57
52839;BME280;39219;53.678;9.856;2023-05-02T07:34:45;77548.53;;;-147.77;48.95
52839;BME280;39219;53.678;9.856;2023-05-02T07:37:12;77528.31;;;-147.77;48.54
52839;BME280;39219;53.678;9.856;2023-05-02T07:39:38;77506.03;;;-147.77;48.53
52839;BME280;39219;53.678;9.856;2023-05-02T07:42:05;77473.66;;;-147.77;47.37
52839;BME280;39219;53.678;9.856;2023-05-02T07:44:33;77463.56;;;-147.77;47.44
52839;BME280;39219;53.678;9.856;2023-05-02T07:47:00;77459.50;;;-147.77;47.27
52839;BME280;39219;53.678;9.856;2023-05-02T07:49:27;77439.28;;;-147.77;47.28
52839;BME280;39219;53.678;9.856;2023-05-02T07:51:53;77469.63;;;-147.77;46.44
52839;BME280;39219;53.678;9.856;2023-05-02T07:54:21;77477.72;;;-147.77;47.26
52839;BME280;39219;53.678;9.856;2023-05-02T07:56:50;77499.97;;;-147.77;46.59
52839;BME280;39219;53.678;9.856;2023-05-02T07:59:16;77465.59;;;-147.77;47.01
52839;BME280;39219;53.678;9.856;2023-05-02T08:01:44;77419.03;;;-147.77;47.57
52839;BME280;39219;53.678;9.856;2023-05-02T08:04:11;77390.72;;;-147.77;46.51
52839;BME280;39219;53.678;9.856;2023-05-02T08:06:37;77366.44;;;-147.77;45.63
52839;BME280;39219;53.678;9.856;2023-05-02T08:09:03;77453.44;;;-147.77;45.11
52839;BME280;39219;53.678;9.856;2023-05-02T08:11:30;77445.34;;;-147.77;46.42
52839;BME280;39219;53.678;9.856;2023-05-02T08:13:56;77419.03;;;-147.77;46.74
52839;BME280;39219;53.678;9.856;2023-05-02T08:16:23;77394.75;;;-147.77;45.90
52839;BME280;39219;53.678;9.856;2023-05-02T08:18:51;77445.34;;;-147.77;46.12
52839;BME280;39219;53.678;9.856;2023-05-02T08:21:17;77449.41;;;-147.77;45.44
52839;BME280;39219;53.678;9.856;2023-05-02T08:23:44;77443.31;;;-147.77;46.02
52839;BME280;39219;53.678;9.856;2023-05-02T08:26:10;77429.16;;;-147.77;46.40
52839;BME280;39219;53.678;9.856;2023-05-02T08:28:37;77400.84;;;-147.77;45.50
52839;BME280;39219;53.678;9.856;2023-05-02T08:31:03;77368.47;;;-147.77;45.45
52839;BME280;39219;53.678;9.856;2023-05-02T08:33:30;77398.81;;;-147.77;44.10
52839;BME280;39219;53.678;9.856;2023-05-02T08:35:57;77402.84;;;-147.77;44.50
52839;BME280;39219;53.678;9.856;2023-05-02T08:38:24;77398.81;;;-147.77;44.01
52839;BME280;39219;53.678;9.856;2023-05-02T08:40:51;77374.53;;;-147.77;44.77
52839;BME280;39219;53.678;9.856;2023-05-02T08:43:17;77352.28;;;-147.77;43.84
52839;BME280;39219;53.678;9.856;2023-05-02T08:45:44;77356.31;;;-147.77;42.15
52839;BME280;39219;53.678;9.856;2023-05-02T08:48:12;77342.16;;;-147.77;43.35
52839;BME280;39219;53.678;9.856;2023-05-02T08:50:42;77303.72;;;-147.77;43.75
52839;BME280;39219;53.678;9.856;2023-05-02T08:53:14;77269.31;;;-147.77;42.82
52839;BME280;39219;53.678;9.856;2023-05-02T08:55:42;77228.84;;;-147.77;41.61
52839;BME280;39219;53.678;9.856;2023-05-02T08:58:09;77180.28;;;-147.77;40.82
52839;BME280;39219;53.678;9.856;2023-05-02T09:00:37;77131.75;;;-147.77;39.44
52839;BME280;39219;53.678;9.856;2023-05-02T09:03:09;77079.13;;;-147.77;39.57
52839;BME280;39219;53.678;9.856;2023-05-02T09:05:40;77056.88;;;-147.77;39.12
52839;BME280;39219;53.678;9.856;2023-05-02T09:08:07;76963.81;;;-147.77;38.67
52839;BME280;39219;53.678;9.856;2023-05-02T09:10:35;77030.59;;;-147.77;38.69
52839;BME280;39219;53.678;9.856;2023-05-02T09:13:30;77018.44;;;-147.77;38.62
52839;BME280;39219;53.678;9.856;2023-05-02T09:15:58;77077.13;;;-147.77;38.94
52839;BME280;39219;53.678;9.856;2023-05-02T09:18:29;77105.44;;;-147.77;39.85
52839;BME280;39219;53.678;9.856;2023-05-02T09:20:57;77095.31;;;-147.77;40.63
52839;BME280;39219;53.678;9.856;2023-05-02T09:23:32;77042.72;;;-147.77;39.97
52839;BME280;39219;53.678;9.856;2023-05-02T09:26:00;76886.94;;;-147.77;40.22
52839;BME280;39219;53.678;9.856;2023-05-02T09:28:37;76781.75;;;-147.77;36.12
52839;BME280;39219;53.678;9.856;2023-05-02T09:31:06;76797.94;;;-147.77;37.40
52839;BME280;39219;53.678;9.856;2023-05-02T09:33:33;76917.28;;;-147.77;37.44
52839;BME280;39219;53.678;9.856;2023-05-02T09:35:59;77034.63;;;-147.77;38.87
52839;BME280;39219;53.678;9.856;2023-05-02T09:38:26;77071.03;;;-147.77;40.10
52839;BME280;39219;53.678;9.856;2023-05-02T09:40:53;77117.56;;;-147.77;39.98
52839;BME280;39219;53.678;9.856;2023-05-02T09:43:22;77184.34;;;-147.77;41.35
52839;BME280;39219;53.678;9.856;2023-05-02T09:45:55;77243.00;;;-147.77;42.15
52839;BME280;39219;53.678;9.856;2023-05-02T09:48:22;77271.34;;;-147.77;42.83
52839;BME280;39219;53.678;9.856;2023-05-02T09:50:48;77283.47;;;-147.77;43.61
52839;BME280;39219;53.678;9.856;2023-05-02T09:53:15;77376.56;;;-147.77;45.65
52839;BME280;39219;53.678;9.856;2023-05-02T09:55:41;77419.03;;;-147.77;46.50
52839;BME280;39219;53.678;9.856;2023-05-02T09:58:19;77437.25;;;-147.77;47.52
52839;BME280;39219;53.678;9.856;2023-05-02T10:00:47;77435.22;;;-147.77;47.98
52839;BME280;39219;53.678;9.856;2023-05-02T10:03:16;77406.91;;;-147.77;47.35
52839;BME280;39219;53.678;9.856;2023-05-02T10:05:43;77372.50;;;-147.77;45.84
52839;BME280;39219;53.678;9.856;2023-05-02T10:08:10;77380.59;;;-147.77;45.09
52839;BME280;39219;53.678;9.856;2023-05-02T10:10:38;77301.69;;;-147.77;44.76
52839;BME280;39219;53.678;9.856;2023-05-02T10:13:06;77232.91;;;-147.77;42.60
52839;BME280;39219;53.678;9.856;2023-05-02T10:15:35;77131.75;;;-147.77;44.00
52839;BME280;39219;53.678;9.856;2023-05-02T10:18:11;77060.94;;;-147.77;40.83
52839;BME280;39219;53.678;9.856;2023-05-02T10:20:42;77036.66;;;-147.77;39.50
52839;BME280;39219;53.678;9.856;2023-05-02T10:23:10;77105.44;;;-147.77;41.39
52839;BME280;39219;53.678;9.856;2023-05-02T10:25:38;77133.75;;;-147.77;41.38
52839;BME280;39219;53.678;9.856;2023-05-02T10:28:05;77133.75;;;-147.77;40.99
52839;BME280;39219;53.678;9.856;2023-05-02T10:30:32;77012.38;;;-147.77;42.33
52839;BME280;39219;53.678;9.856;2023-05-02T10:32:59;76947.63;;;-147.77;40.34
52839;BME280;39219;53.678;9.856;2023-05-02T10:35:29;77002.25;;;-147.77;40.22
52839;BME280;39219;53.678;9.856;2023-05-02T10:37:57;77000.22;;;-147.77;39.25
52839;BME280;39219;53.678;9.856;2023-05-02T10:40:24;77069.03;;;-147.77;40.17
52839;BME280;39219;53.678;9.856;2023-05-02T10:42:50;77143.88;;;-147.77;41.47
52839;BME280;39219;53.678;9.856;2023-05-02T10:45:36;77198.50;;;-147.77;42.19
52839;BME280;39219;53.678;9.856;2023-05-02T10:48:13;77200.53;;;-147.77;42.49
52839;BME280;39219;53.678;9.856;2023-05-02T10:50:45;77190.41;;;-147.77;43.86
52839;BME280;39219;53.678;9.856;2023-05-02T10:53:32;77241.00;;;-147.77;43.45
52839;BME280;39219;53.678;9.856;2023-05-02T10:56:13;77257.19;;;-147.77;42.19
52839;BME280;39219;53.678;9.856;2023-05-02T10:58:41;77194.47;;;-147.77;42.23
52839;BME280;39219;53.678;9.856;2023-05-02T11:01:32;77099.38;;;-147.77;42.86
52839;BME280;39219;53.678;9.856;2023-05-02T11:04:01;77012.38;;;-147.77;40.73
52839;BME280;39219;53.678;9.856;2023-05-02T11:06:30;77026.53;;;-147.77;40.09
52839;BME280;39219;53.678;9.856;2023-05-02T11:09:32;77040.69;;;-147.77;40.51
52839;BME280;39219;53.678;9.856;2023-05-02T11:11:59;77036.66;;;-147.77;40.34
52839;BME280;39219;53.678;9.856;2023-05-02T11:14:42;77075.09;;;-147.77;40.61
52839;BME280;39219;53.678;9.856;2023-05-02T11:17:09;77115.56;;;-147.77;42.02
52839;BME280;39219;53.678;9.856;2023-05-02T11:22:37;77172.19;;;-147.77;41.38
52839;BME280;39219;53.678;9.856;2023-05-02T11:25:31;77158.03;;;-147.77;41.18
52839;BME280;39219;53.678;9.856;2023-05-02T11:27:58;77192.44;;;-147.77;40.60
52839;BME280;39219;53.678;9.856;2023-05-02T11:30:42;77230.88;;;-147.77;41.46
52839;BME280;39219;53.678;9.856;2023-05-02T11:33:16;77204.56;;;-147.77;40.50
52839;BME280;39219;53.678;9.856;2023-05-02T11:35:45;77156.03;;;-147.77;41.77
52839;BME280;39219;53.678;9.856;2023-05-02T11:38:15;77089.25;;;-147.77;40.04
52839;BME280;39219;53.678;9.856;2023-05-02T11:40:58;77002.25;;;-147.77;41.27
52839;BME280;39219;53.678;9.856;2023-05-02T11:43:26;77002.25;;;-147.77;38.41
52839;BME280;39219;53.678;9.856;2023-05-02T11:45:54;77069.03;;;-147.77;39.74
52839;BME280;39219;53.678;9.856;2023-05-02T11:48:22;77067.00;;;-147.77;40.70
52839;BME280;39219;53.678;9.856;2023-05-02T11:50:52;77145.91;;;-147.77;40.23
52839;BME280;39219;53.678;9.856;2023-05-02T11:53:21;77200.53;;;-147.77;39.56
52839;BME280;39219;53.678;9.856;2023-05-02T11:55:50;77234.91;;;-147.77;40.72
52839;BME280;39219;53.678;9.856;2023-05-02T11:58:18;77281.47;;;-147.77;41.08
52839;BME280;39219;53.678;9.856;2023-05-02T12:00:45;77293.59;;;-147.77;41.71
52839;BME280;39219;53.678;9.856;2023-05-02T12:03:36;77313.81;;;-147.77;41.60
52839;BME280;39219;53.678;9.856;2023-05-02T12:06:09;77328.00;;;-147.77;40.56
52839;BME280;39219;53.678;9.856;2023-05-02T12:08:38;77236.94;;;-147.77;40.06
52839;BME280;39219;53.678;9.856;2023-05-02T12:11:05;77176.25;;;-147.77;40.06
52839;BME280;39219;53.678;9.856;2023-05-02T12:13:31;77170.19;;;-147.77;38.58
52839;BME280;39219;53.678;9.856;2023-05-02T12:15:58;77164.09;;;-147.77;38.32
52839;BME280;39219;53.678;9.856;2023-05-02T12:18:25;77257.19;;;-147.77;38.89
52839;BME280;39219;53.678;9.856;2023-05-02T12:20:53;77251.09;;;-147.77;40.18
52839;BME280;39219;53.678;9.856;2023-05-02T12:23:22;77208.63;;;-147.77;39.78
52839;BME280;39219;53.678;9.856;2023-05-02T12:25:50;77194.47;;;-147.77;39.87
52839;BME280;39219;53.678;9.856;2023-05-02T12:28:17;77251.09;;;-147.77;40.01
52839;BME280;39219;53.678;9.856;2023-05-02T12:30:46;77267.28;;;-147.77;41.31
52839;BME280;39219;53.678;9.856;2023-05-02T12:33:13;77342.16;;;-147.77;40.99
52839;BME280;39219;53.678;9.856;2023-05-02T12:35:40;77354.28;;;-147.77;42.29
52839;BME280;39219;53.678;9.856;2023-05-02T12:38:12;77419.03;;;-147.77;42.61
52839;BME280;39219;53.678;9.856;2023-05-02T12:40:50;77483.78;;;-147.77;43.33
52839;BME280;39219;53.678;9.856;2023-05-02T12:43:17;77479.75;;;-147.77;44.80
52839;BME280;39219;53.678;9.856;2023-05-02T12:45:44;77463.56;;;-147.77;44.21
52839;BME280;39219;53.678;9.856;2023-05-02T12:48:20;77449.41;;;-147.77;44.46
52839;BME280;39219;53.678;9.856;2023-05-02T12:50:47;77475.69;;;-147.77;44.57